Time;durP1;ratioP1;P1;durP2;ratioP2;P2;SDS_P1;SDS_P2;PMS_P1;PMS_P2;Temp;Humidity;BMP_temperature;BMP_pressure;BME280_temperature;BME280_humidity;BME280_pressure;Samples;Min_cycle;Max_cycle;Signal;HPM_P1;HPM_P2
2021/09/23 00:00:44;;;;;;;36.07;27.20;;;;;;;;;;5033114;28;20938;-59
2021/09/23 00:03:14;;;;;;;37.10;27.70;;;;;;;;;;5033417;28;20455;-59
2021/09/23 00:05:41;;;;;;;34.90;26.07;;;;;;;;;;5035426;28;20516;-59
2021/09/23 00:08:10;;;;;;;40.10;30.63;;;;;;;;;;5033564;28;20867;-59
2021/09/23 00:10:38;;;;;;;33.60;26.90;;;;;;;;;;5033241;28;20541;-59
2021/09/23 00:13:06;;;;;;;30.23;25.40;;;;;;;;;;5033155;28;20477;-60
2021/09/23 00:15:35;;;;;;;33.20;25.40;;;;;;;;;;5032912;28;20497;-59
2021/09/23 00:18:05;;;;;;;33.43;25.10;;;;;;;;;;5033125;28;20554;-59
2021/09/23 00:20:32;;;;;;;32.77;25.00;;;;;;;;;;5034689;28;20543;-60
2021/09/23 00:23:00;;;;;;;35.80;26.13;;;;;;;;;;5033780;28;20456;-59
2021/09/23 00:25:27;;;;;;;34.23;27.00;;;;;;;;;;5038591;28;20504;-60
2021/09/23 00:27:55;;;;;;;35.77;26.90;;;;;;;;;;5043448;28;20482;-59
2021/09/23 00:30:22;;;;;;;31.15;25.48;;;;;;;;;;5044498;28;21017;-60
2021/09/23 00:32:51;;;;;;;37.47;28.13;;;;;;;;;;5043633;28;20203;-58
2021/09/23 00:35:18;;;;;;;35.23;26.90;;;;;;;;;;5042530;28;20249;-59
2021/09/23 00:37:46;;;;;;;35.47;26.83;;;;;;;;;;5041818;28;20470;-59
2021/09/23 00:40:14;;;;;;;36.83;27.00;;;;;;;;;;5042584;28;20449;-60
2021/09/23 00:42:42;;;;;;;42.77;27.60;;;;;;;;;;5042090;28;20525;-60
2021/09/23 00:45:10;;;;;;;31.40;25.48;;;;;;;;;;5039057;28;20447;-60
2021/09/23 00:47:37;;;;;;;36.17;29.30;;;;;;;;;;5040114;28;20235;-59
2021/09/23 00:50:07;;;;;;;35.20;26.80;;;;;;;;;;5040156;28;20500;-60
2021/09/23 00:52:35;;;;;;;42.75;31.35;;;;;;;;;;5039044;28;20203;-60
2021/09/23 00:55:02;;;;;;;40.55;29.35;;;;;;;;;;5037607;28;20228;-60
2021/09/23 00:57:29;;;;;;;39.83;27.75;;;;;;;;;;5037882;28;20270;-60
2021/09/23 00:59:57;;;;;;;32.63;26.40;;;;;;;;;;5037576;28;20552;-60
2021/09/23 01:02:24;;;;;;;31.97;24.90;;;;;;;;;;5038591;28;20200;-60
2021/09/23 01:04:52;;;;;;;34.58;26.20;;;;;;;;;;5037857;28;21007;-60
2021/09/23 01:07:21;;;;;;;38.20;25.40;;;;;;;;;;5037594;28;20734;-60
2021/09/23 01:09:49;;;;;;;34.47;26.87;;;;;;;;;;5037865;28;20216;-60
2021/09/23 01:12:17;;;;;;;36.33;24.50;;;;;;;;;;5038069;28;20452;-59
2021/09/23 01:14:45;;;;;;;37.55;27.42;;;;;;;;;;5037483;28;20469;-60
2021/09/23 01:17:12;;;;;;;38.28;25.63;;;;;;;;;;5037450;28;20204;-60
2021/09/23 01:19:41;;;;;;;34.15;25.88;;;;;;;;;;5036792;28;20199;-60
2021/09/23 01:22:10;;;;;;;35.25;27.40;;;;;;;;;;5036525;28;20213;-60
2021/09/23 01:24:38;;;;;;;41.42;28.23;;;;;;;;;;5036161;28;20197;-59
2021/09/23 01:27:05;;;;;;;36.97;26.80;;;;;;;;;;5036126;28;20672;-60
2021/09/23 01:29:33;;;;;;;38.30;28.10;;;;;;;;;;5035993;28;20468;-60
2021/09/23 01:32:02;;;;;;;42.70;27.98;;;;;;;;;;5035820;28;20210;-60
2021/09/23 01:34:29;;;;;;;34.60;26.58;;;;;;;;;;5036029;28;20232;-60
2021/09/23 01:36:56;;;;;;;39.13;29.08;;;;;;;;;;5035311;28;20209;-60
2021/09/23 01:39:27;;;;;;;38.50;27.73;;;;;;;;;;5035934;28;20225;-60
2021/09/23 01:41:55;;;;;;;36.35;29.00;;;;;;;;;;5035773;28;20642;-59
2021/09/23 01:44:22;;;;;;;42.63;30.85;;;;;;;;;;5035653;28;20206;-60
2021/09/23 01:46:49;;;;;;;40.58;29.80;;;;;;;;;;5035562;28;20256;-60
2021/09/23 01:49:17;;;;;;;40.70;28.38;;;;;;;;;;5035677;28;20227;-60
2021/09/23 01:51:44;;;;;;;38.88;28.65;;;;;;;;;;5035917;28;20204;-60
2021/09/23 01:54:11;;;;;;;44.35;29.52;;;;;;;;;;5035942;28;20219;-60
2021/09/23 01:56:40;;;;;;;41.22;28.88;;;;;;;;;;5035958;28;20205;-60
2021/09/23 01:59:07;;;;;;;45.88;28.90;;;;;;;;;;5035898;28;20229;-59
2021/09/23 02:01:35;;;;;;;40.30;28.92;;;;;;;;;;5035552;28;20254;-59
2021/09/23 02:04:02;;;;;;;47.90;32.30;;;;;;;;;;5035350;28;20737;-60
2021/09/23 02:06:29;;;;;;;45.20;32.50;;;;;;;;;;5035574;28;20204;-60
2021/09/23 02:08:56;;;;;;;44.40;32.35;;;;;;;;;;5035410;28;20272;-60
2021/09/23 02:11:24;;;;;;;39.67;30.20;;;;;;;;;;5035375;28;20286;-60
2021/09/23 02:13:52;;;;;;;45.70;31.70;;;;;;;;;;5035012;28;20219;-60
2021/09/23 02:16:20;;;;;;;42.25;30.33;;;;;;;;;;5034971;28;20671;-60
2021/09/23 02:18:47;;;;;;;45.13;31.55;;;;;;;;;;5034876;28;20349;-60
2021/09/23 02:21:14;;;;;;;44.83;32.70;;;;;;;;;;5035226;28;20204;-60
2021/09/23 02:23:42;;;;;;;43.20;30.38;;;;;;;;;;5035218;28;20267;-59
2021/09/23 02:26:09;;;;;;;45.28;32.42;;;;;;;;;;5035055;28;20255;-60
2021/09/23 02:28:38;;;;;;;42.72;29.55;;;;;;;;;;5034468;28;20241;-59
2021/09/23 02:31:07;;;;;;;44.40;30.88;;;;;;;;;;5035039;28;20205;-59
2021/09/23 02:33:34;;;;;;;51.40;33.63;;;;;;;;;;5034549;28;20224;-59
2021/09/23 02:36:01;;;;;;;47.20;33.00;;;;;;;;;;5034843;28;20204;-59
2021/09/23 02:38:29;;;;;;;43.70;33.28;;;;;;;;;;5035296;28;20600;-59
2021/09/23 02:40:56;;;;;;;43.88;31.80;;;;;;;;;;5036832;28;20211;-60
2021/09/23 02:43:23;;;;;;;52.05;34.08;;;;;;;;;;5034766;28;20199;-60
2021/09/23 02:45:51;;;;;;;48.53;32.60;;;;;;;;;;5034856;28;20212;-59
2021/09/23 02:48:20;;;;;;;44.92;32.63;;;;;;;;;;5033680;28;20246;-59
2021/09/23 02:50:47;;;;;;;44.17;33.70;;;;;;;;;;5035029;28;20208;-59
2021/09/23 02:53:14;;;;;;;42.88;30.20;;;;;;;;;;5034726;28;20212;-59
2021/09/23 02:55:41;;;;;;;45.15;32.85;;;;;;;;;;5034696;28;20297;-59
2021/09/23 02:58:09;;;;;;;45.22;34.13;;;;;;;;;;5034471;28;20717;-59
2021/09/23 03:00:36;;;;;;;50.03;33.88;;;;;;;;;;5034682;28;20205;-58
2021/09/23 03:03:04;;;;;;;50.55;33.63;;;;;;;;;;5034226;28;20205;-58
2021/09/23 03:05:32;;;;;;;51.42;34.55;;;;;;;;;;5034442;28;20208;-59
2021/09/23 03:08:00;;;;;;;51.45;36.70;;;;;;;;;;5033982;28;20230;-59
2021/09/23 03:10:27;;;;;;;48.67;33.17;;;;;;;;;;5034173;28;20577;-59
2021/09/23 03:12:54;;;;;;;52.05;36.03;;;;;;;;;;5033856;28;20252;-59
2021/09/23 03:15:21;;;;;;;51.13;34.83;;;;;;;;;;5034144;28;20271;-59
2021/09/23 03:17:49;;;;;;;51.28;36.47;;;;;;;;;;5034249;28;20230;-59
2021/09/23 03:20:16;;;;;;;52.03;36.65;;;;;;;;;;5034293;28;20581;-60
2021/09/23 03:22:44;;;;;;;50.72;38.20;;;;;;;;;;5033823;28;20209;-59
2021/09/23 03:25:12;;;;;;;57.10;35.65;;;;;;;;;;5033737;28;20735;-59
2021/09/23 03:27:39;;;;;;;56.70;38.58;;;;;;;;;;5033610;28;20282;-60
2021/09/23 03:30:07;;;;;;;52.92;36.42;;;;;;;;;;5034009;28;20192;-60
2021/09/23 03:32:34;;;;;;;55.22;38.28;;;;;;;;;;5033591;28;20210;-60
2021/09/23 03:35:01;;;;;;;50.00;33.60;;;;;;;;;;5034132;28;20223;-60
2021/09/23 03:37:28;;;;;;;44.65;33.30;;;;;;;;;;5034114;28;20270;-60
2021/09/23 03:39:57;;;;;;;46.38;34.70;;;;;;;;;;5034137;28;20733;-60
2021/09/23 03:42:24;;;;;;;56.95;37.17;;;;;;;;;;5033747;28;20213;-60
2021/09/23 03:44:51;;;;;;;54.45;34.83;;;;;;;;;;5034082;28;20196;-59
2021/09/23 03:47:19;;;;;;;52.08;35.33;;;;;;;;;;5033420;28;20675;-60
2021/09/23 03:49:46;;;;;;;50.95;34.90;;;;;;;;;;5033254;28;20260;-59
2021/09/23 03:52:13;;;;;;;49.78;35.97;;;;;;;;;;5033265;28;20207;-59
2021/09/23 03:54:40;;;;;;;46.10;32.67;;;;;;;;;;5033630;28;20221;-59
2021/09/23 03:57:09;;;;;;;50.80;35.35;;;;;;;;;;5033819;28;20278;-59
2021/09/23 03:59:36;;;;;;;45.05;32.33;;;;;;;;;;5033507;28;20207;-60
2021/09/23 04:02:04;;;;;;;46.92;34.35;;;;;;;;;;5033341;28;20677;-59
2021/09/23 04:04:31;;;;;;;60.97;39.45;;;;;;;;;;5033737;28;20284;-60
2021/09/23 04:08:38;;;;;;;59.70;39.92;;;;;;;;;;5113130;27;21056;-59
2021/09/23 04:11:06;;;;;;;56.42;39.45;;;;;;;;;;5117790;28;20187;-60
2021/09/23 04:13:33;;;;;;;57.42;38.85;;;;;;;;;;5128494;28;20304;-60
2021/09/23 04:16:00;;;;;;;61.88;39.47;;;;;;;;;;5126279;28;20209;-60
2021/09/23 04:18:27;;;;;;;49.97;34.80;;;;;;;;;;5113899;28;20221;-60
2021/09/23 04:20:54;;;;;;;56.03;37.28;;;;;;;;;;5111942;28;20204;-59
2021/09/23 04:23:22;;;;;;;59.83;38.92;;;;;;;;;;5111354;28;20205;-58
2021/09/23 04:25:50;;;;;;;62.30;40.17;;;;;;;;;;5111337;28;20252;-58
2021/09/23 04:28:18;;;;;;;51.47;35.88;;;;;;;;;;5111746;28;20222;-59
2021/09/23 04:30:45;;;;;;;51.20;36.25;;;;;;;;;;5112312;28;20208;-59
2021/09/23 04:33:12;;;;;;;54.58;36.00;;;;;;;;;;5111457;28;20208;-59
2021/09/23 04:35:39;;;;;;;52.15;34.72;;;;;;;;;;5113816;28;20203;-60
2021/09/23 04:38:07;;;;;;;51.10;36.95;;;;;;;;;;5111539;28;20219;-58
2021/09/23 04:40:34;;;;;;;55.08;38.08;;;;;;;;;;5110847;28;20193;-59
2021/09/23 04:43:03;;;;;;;48.00;32.88;;;;;;;;;;5111055;28;20283;-60
2021/09/23 04:45:30;;;;;;;49.15;36.40;;;;;;;;;;5110983;28;20237;-60
2021/09/23 04:47:57;;;;;;;48.22;34.95;;;;;;;;;;5113348;28;20271;-59
2021/09/23 04:50:24;;;;;;;48.28;34.95;;;;;;;;;;5110883;28;20252;-59
2021/09/23 04:52:52;;;;;;;48.47;36.28;;;;;;;;;;5110839;28;20201;-58
2021/09/23 04:55:19;;;;;;;58.30;37.07;;;;;;;;;;5110929;28;20270;-60
2021/09/23 04:57:46;;;;;;;50.87;33.70;;;;;;;;;;5110822;28;20467;-58
2021/09/23 05:00:16;;;;;;;50.15;34.60;;;;;;;;;;5110867;28;20454;-60
2021/09/23 05:02:43;;;;;;;48.90;38.03;;;;;;;;;;5111070;28;20201;-58
2021/09/23 05:05:11;;;;;;;54.95;37.10;;;;;;;;;;5111528;28;20203;-59
2021/09/23 05:07:38;;;;;;;51.85;36.17;;;;;;;;;;5122604;28;20224;-59
2021/09/23 05:10:06;;;;;;;49.15;34.63;;;;;;;;;;5131105;28;20201;-60
2021/09/23 05:12:33;;;;;;;55.38;37.88;;;;;;;;;;5131090;28;20237;-58
2021/09/23 05:15:00;;;;;;;56.45;36.92;;;;;;;;;;5132352;28;20254;-59
2021/09/23 05:17:29;;;;;;;49.45;34.50;;;;;;;;;;5134981;28;20216;-59
2021/09/23 05:19:57;;;;;;;52.67;36.92;;;;;;;;;;5118243;28;20197;-59
2021/09/23 05:22:27;;;;;;;47.17;32.85;;;;;;;;;;5118130;28;20656;-60
2021/09/23 05:24:54;;;;;;;55.60;36.50;;;;;;;;;;5117083;28;20696;-59
2021/09/23 05:27:21;;;;;;;55.60;35.90;;;;;;;;;;5116861;28;20470;-59
2021/09/23 05:29:49;;;;;;;55.17;36.60;;;;;;;;;;5136627;23;20479;-56
2021/09/23 05:32:16;;;;;;;55.77;36.30;;;;;;;;;;5115932;28;20222;-56
2021/09/23 05:34:44;;;;;;;51.05;34.75;;;;;;;;;;5116295;28;20554;-56
2021/09/23 05:37:12;;;;;;;51.47;35.65;;;;;;;;;;5116276;28;20197;-56
2021/09/23 05:39:39;;;;;;;51.92;34.45;;;;;;;;;;5130573;27;20614;-56
2021/09/23 05:42:06;;;;;;;54.53;38.28;;;;;;;;;;5136076;27;20210;-56
2021/09/23 05:44:34;;;;;;;47.37;34.50;;;;;;;;;;5136499;27;20208;-56
2021/09/23 05:47:01;;;;;;;47.70;34.17;;;;;;;;;;5136325;27;20503;-56
2021/09/23 05:49:28;;;;;;;48.07;34.77;;;;;;;;;;5136407;27;20542;-56
2021/09/23 05:51:59;;;;;;;50.43;34.53;;;;;;;;;;5135853;27;20450;-56
2021/09/23 05:54:26;;;;;;;46.37;34.10;;;;;;;;;;5136528;27;20450;-56
2021/09/23 05:56:53;;;;;;;55.63;35.63;;;;;;;;;;5135964;27;20453;-56
2021/09/23 05:59:24;;;;;;;49.70;34.47;;;;;;;;;;5135450;27;20514;-56
2021/09/23 06:01:54;;;;;;;47.83;32.67;;;;;;;;;;5135769;27;20426;-57
2021/09/23 06:04:21;;;;;;;51.10;34.40;;;;;;;;;;5135723;27;20479;-56
2021/09/23 06:06:49;;;;;;;45.10;31.97;;;;;;;;;;5136000;27;20454;-56
2021/09/23 06:09:17;;;;;;;46.17;32.30;;;;;;;;;;5135749;27;20503;-56
2021/09/23 06:11:45;;;;;;;44.40;32.30;;;;;;;;;;5136215;27;20440;-56
2021/09/23 06:14:12;;;;;;;46.33;32.70;;;;;;;;;;5136053;27;20928;-55
2021/09/23 06:16:39;;;;;;;45.27;31.13;;;;;;;;;;5135561;27;20437;-56
2021/09/23 06:19:07;;;;;;;40.20;29.63;;;;;;;;;;5135446;27;20467;-55
2021/09/23 06:21:34;;;;;;;39.33;29.33;;;;;;;;;;5135215;27;20941;-55
2021/09/23 06:24:02;;;;;;;39.67;30.63;;;;;;;;;;5135495;27;20529;-55
2021/09/23 06:26:30;;;;;;;40.13;29.40;;;;;;;;;;5136259;27;20496;-55
2021/09/23 06:28:58;;;;;;;37.67;29.70;;;;;;;;;;5135007;27;20555;-55
2021/09/23 06:31:25;;;;;;;37.10;26.50;;;;;;;;;;5133967;27;20465;-55
2021/09/23 06:33:52;;;;;;;40.40;27.50;;;;;;;;;;5135864;27;20453;-55
2021/09/23 06:36:20;;;;;;;35.77;26.53;;;;;;;;;;5135471;27;20497;-55
2021/09/23 06:38:47;;;;;;;35.07;26.60;;;;;;;;;;5135525;27;20856;-55
2021/09/23 06:41:14;;;;;;;33.93;26.03;;;;;;;;;;5135502;27;20439;-55
2021/09/23 06:43:43;;;;;;;31.50;25.47;;;;;;;;;;5136309;27;20860;-55
2021/09/23 06:46:12;;;;;;;31.90;24.00;;;;;;;;;;5134940;27;20450;-55
2021/09/23 06:48:40;;;;;;;35.67;23.33;;;;;;;;;;5135134;27;20512;-55
2021/09/23 06:51:07;;;;;;;28.50;22.47;;;;;;;;;;5136494;27;20431;-55
2021/09/23 06:53:34;;;;;;;28.63;21.37;;;;;;;;;;5135445;27;20855;-55
2021/09/23 06:56:01;;;;;;;29.87;20.60;;;;;;;;;;5134920;27;20555;-56
2021/09/23 06:58:29;;;;;;;30.23;20.97;;;;;;;;;;5135150;27;20468;-55
2021/09/23 07:00:57;;;;;;;25.00;18.63;;;;;;;;;;5134788;27;20445;-55
2021/09/23 07:03:24;;;;;;;25.90;19.43;;;;;;;;;;5135480;27;20705;-56
2021/09/23 07:05:52;;;;;;;25.00;19.47;;;;;;;;;;5134537;27;20501;-55
2021/09/23 07:08:20;;;;;;;25.80;18.90;;;;;;;;;;5134630;27;20509;-56
2021/09/23 07:10:49;;;;;;;24.57;17.40;;;;;;;;;;5135079;27;20923;-56
2021/09/23 07:13:17;;;;;;;27.43;18.60;;;;;;;;;;5134633;27;20448;-55
2021/09/23 07:15:44;;;;;;;26.33;18.97;;;;;;;;;;5134540;27;20552;-56
2021/09/23 07:18:13;;;;;;;23.70;18.00;;;;;;;;;;5134632;27;20567;-56
2021/09/23 07:20:40;;;;;;;22.67;18.13;;;;;;;;;;5134403;27;20490;-55
2021/09/23 07:23:07;;;;;;;24.03;17.53;;;;;;;;;;5134317;27;20799;-56
2021/09/23 07:25:35;;;;;;;24.77;16.77;;;;;;;;;;5134522;27;20976;-56
2021/09/23 07:28:03;;;;;;;25.80;17.50;;;;;;;;;;5134441;27;20540;-56
2021/09/23 07:30:30;;;;;;;21.10;16.80;;;;;;;;;;5134233;27;20491;-56
2021/09/23 07:32:57;;;;;;;26.43;17.43;;;;;;;;;;5134364;27;20440;-55
2021/09/23 07:35:26;;;;;;;19.73;15.23;;;;;;;;;;5134351;27;20445;-56
2021/09/23 07:37:53;;;;;;;21.83;16.37;;;;;;;;;;5134293;27;20433;-55
2021/09/23 07:40:20;;;;;;;18.83;14.93;;;;;;;;;;5134316;27;20502;-56
2021/09/23 07:42:47;;;;;;;28.63;17.93;;;;;;;;;;5133755;27;20805;-57
2021/09/23 07:45:15;;;;;;;20.60;16.17;;;;;;;;;;5133682;27;20434;-56
2021/09/23 07:47:42;;;;;;;20.97;15.00;;;;;;;;;;5133900;27;20492;-56
2021/09/23 07:50:10;;;;;;;25.27;16.10;;;;;;;;;;5134079;27;20461;-55
2021/09/23 07:52:38;;;;;;;21.20;15.50;;;;;;;;;;5133719;27;20494;-55
2021/09/23 07:55:06;;;;;;;19.40;14.57;;;;;;;;;;5133739;27;20874;-57
2021/09/23 07:57:34;;;;;;;20.63;15.40;;;;;;;;;;5133805;27;20449;-57
2021/09/23 08:00:01;;;;;;;19.40;13.87;;;;;;;;;;5134408;27;20477;-56
2021/09/23 08:02:29;;;;;;;18.30;14.40;;;;;;;;;;5134063;27;20441;-56
2021/09/23 08:04:56;;;;;;;23.57;14.97;;;;;;;;;;5134138;27;20509;-56
2021/09/23 08:07:23;;;;;;;20.10;14.60;;;;;;;;;;5133727;28;20498;-56
2021/09/23 08:09:52;;;;;;;18.40;14.20;;;;;;;;;;5133778;28;20461;-56
2021/09/23 08:12:19;;;;;;;17.40;13.80;;;;;;;;;;5133982;28;20471;-56
2021/09/23 08:14:46;;;;;;;16.87;12.47;;;;;;;;;;5133350;28;20438;-57
2021/09/23 08:17:13;;;;;;;17.53;13.13;;;;;;;;;;5133792;28;20498;-56
2021/09/23 08:19:41;;;;;;;17.33;13.03;;;;;;;;;;5133471;28;20519;-56
2021/09/23 08:22:08;;;;;;;15.77;11.97;;;;;;;;;;5134070;28;20480;-56
2021/09/23 08:24:36;;;;;;;17.53;13.20;;;;;;;;;;5133665;28;20446;-56
2021/09/23 08:27:05;;;;;;;18.50;12.20;;;;;;;;;;5134115;28;20520;-56
2021/09/23 08:29:32;;;;;;;13.63;11.77;;;;;;;;;;5133264;28;20481;-56
2021/09/23 08:31:59;;;;;;;16.77;12.43;;;;;;;;;;5133823;28;20594;-56
2021/09/23 08:34:27;;;;;;;16.23;11.00;;;;;;;;;;5133862;28;20458;-56
2021/09/23 08:36:54;;;;;;;17.93;12.53;;;;;;;;;;5133870;28;20565;-57
2021/09/23 08:39:21;;;;;;;14.57;12.57;;;;;;;;;;5133290;28;20969;-57
2021/09/23 08:41:49;;;;;;;18.87;12.23;;;;;;;;;;5133627;28;20438;-56
2021/09/23 08:44:18;;;;;;;13.20;10.30;;;;;;;;;;5133461;28;20458;-57
2021/09/23 08:46:45;;;;;;;13.90;11.47;;;;;;;;;;5133293;28;20442;-57
2021/09/23 08:49:12;;;;;;;14.70;10.77;;;;;;;;;;5133437;28;20488;-56
2021/09/23 08:51:39;;;;;;;15.27;11.03;;;;;;;;;;5133375;28;20523;-56
2021/09/23 08:54:07;;;;;;;16.70;11.63;;;;;;;;;;5135367;27;20496;-57
2021/09/23 08:56:35;;;;;;;13.83;10.93;;;;;;;;;;5137595;27;20492;-56
2021/09/23 08:59:02;;;;;;;13.57;10.37;;;;;;;;;;5137021;27;20546;-57
2021/09/23 09:01:39;;;;;;;15.40;10.73;;;;;;;;;;5136866;27;20926;-56
2021/09/23 09:04:07;;;;;;;15.40;11.23;;;;;;;;;;5137669;27;20431;-56
2021/09/23 09:06:35;;;;;;;12.60;9.50;;;;;;;;;;5136895;27;20534;-57
2021/09/23 09:09:04;;;;;;;14.00;10.10;;;;;;;;;;5136667;27;21016;-56
2021/09/23 09:11:31;;;;;;;11.63;10.00;;;;;;;;;;5137121;27;20474;-56
2021/09/23 09:13:58;;;;;;;11.83;9.20;;;;;;;;;;5136849;27;20481;-56
2021/09/23 09:16:27;;;;;;;13.37;9.10;;;;;;;;;;5136959;27;20442;-56
2021/09/23 09:18:57;;;;;;;12.33;8.80;;;;;;;;;;5137088;27;20985;-57
2021/09/23 09:21:25;;;;;;;11.80;8.80;;;;;;;;;;5136952;27;20510;-57
2021/09/23 09:23:53;;;;;;;9.57;7.90;;;;;;;;;;5137003;27;20442;-56
2021/09/23 09:26:28;;;;;;;11.47;9.37;;;;;;;;;;5136431;27;20943;-56
2021/09/23 09:28:55;;;;;;;9.97;7.73;;;;;;;;;;5136486;27;20486;-56
2021/09/23 09:31:23;;;;;;;13.30;8.50;;;;;;;;;;5136531;27;20512;-57
2021/09/23 09:33:51;;;;;;;10.03;8.43;;;;;;;;;;5136895;27;20443;-55
2021/09/23 09:36:30;;;;;;;9.17;7.97;;;;;;;;;;5136677;27;20877;-55
2021/09/23 09:38:58;;;;;;;10.30;8.40;;;;;;;;;;5136453;27;20480;-56
2021/09/23 09:41:26;;;;;;;9.23;7.90;;;;;;;;;;5136156;27;20538;-55
2021/09/23 09:43:54;;;;;;;12.10;7.80;;;;;;;;;;5136520;27;20456;-55
2021/09/23 09:46:25;;;;;;;8.33;7.40;;;;;;;;;;5136309;27;20443;-55
2021/09/23 09:48:53;;;;;;;9.07;7.20;;;;;;;;;;5136223;27;20553;-56
2021/09/23 09:51:22;;;;;;;8.97;7.00;;;;;;;;;;5136158;27;20448;-55
2021/09/23 09:53:58;;;;;;;9.03;7.60;;;;;;;;;;5136299;27;20494;-55
2021/09/23 09:56:26;;;;;;;11.07;8.70;;;;;;;;;;5135716;27;20487;-55
2021/09/23 09:59:07;;;;;;;9.70;7.30;;;;;;;;;;5136030;27;20465;-55
2021/09/23 10:01:34;;;;;;;9.73;7.57;;;;;;;;;;5136218;27;20452;-56
2021/09/23 10:04:02;;;;;;;8.90;6.57;;;;;;;;;;5136414;27;20830;-56
2021/09/23 10:06:30;;;;;;;11.17;7.50;;;;;;;;;;5136121;27;20475;-56
2021/09/23 10:08:58;;;;;;;9.10;6.83;;;;;;;;;;5135799;27;20927;-55
2021/09/23 10:11:31;;;;;;;10.20;6.93;;;;;;;;;;5136329;27;20448;-55
2021/09/23 10:13:59;;;;;;;10.10;6.80;;;;;;;;;;5136041;27;20433;-56
2021/09/23 10:16:28;;;;;;;10.80;6.50;;;;;;;;;;5135813;27;20457;-57
2021/09/23 10:18:56;;;;;;;9.33;6.90;;;;;;;;;;5136507;27;20499;-55
2021/09/23 10:21:23;;;;;;;8.00;6.10;;;;;;;;;;5135621;27;20497;-57
2021/09/23 10:23:52;;;;;;;8.53;5.90;;;;;;;;;;5135570;27;20452;-55
2021/09/23 10:26:23;;;;;;;7.27;6.47;;;;;;;;;;5135397;27;20440;-56
2021/09/23 10:28:51;;;;;;;9.50;7.00;;;;;;;;;;5135105;27;20488;-55
2021/09/23 10:31:19;;;;;;;6.47;5.50;;;;;;;;;;5136510;27;20564;-56
2021/09/23 10:33:47;;;;;;;6.00;5.40;;;;;;;;;;5134887;27;20448;-56
2021/09/23 10:36:15;;;;;;;7.47;5.77;;;;;;;;;;5135276;27;20854;-55
2021/09/23 10:38:43;;;;;;;7.57;6.20;;;;;;;;;;5135170;27;20465;-55
2021/09/23 10:41:11;;;;;;;8.33;6.20;;;;;;;;;;5135188;27;20437;-57
2021/09/23 10:43:42;;;;;;;7.90;5.83;;;;;;;;;;5135266;27;20840;-55
2021/09/23 10:46:11;;;;;;;7.37;6.03;;;;;;;;;;5135060;27;20903;-57
2021/09/23 10:48:39;;;;;;;9.53;5.77;;;;;;;;;;5135061;27;20481;-55
2021/09/23 10:51:07;;;;;;;7.60;6.90;;;;;;;;;;5134970;27;20486;-55
2021/09/23 10:53:34;;;;;;;8.97;7.33;;;;;;;;;;5134795;27;20487;-56
2021/09/23 10:56:03;;;;;;;8.70;6.50;;;;;;;;;;5134549;27;20501;-56
2021/09/23 10:58:31;;;;;;;7.63;6.10;;;;;;;;;;5135159;27;20547;-56
2021/09/23 11:01:01;;;;;;;9.13;7.13;;;;;;;;;;5134887;27;20932;-56
2021/09/23 11:03:32;;;;;;;8.13;7.10;;;;;;;;;;5135962;27;20457;-56
2021/09/23 11:06:10;;;;;;;9.37;6.70;;;;;;;;;;5134986;27;20421;-57
2021/09/23 11:08:41;;;;;;;7.83;6.50;;;;;;;;;;5134843;27;20472;-57
2021/09/23 11:11:09;;;;;;;11.70;8.00;;;;;;;;;;5134603;27;20472;-57
2021/09/23 11:13:37;;;;;;;9.90;7.07;;;;;;;;;;5134716;27;20504;-56
2021/09/23 11:16:07;;;;;;;11.70;8.20;;;;;;;;;;5133709;27;20982;-56
2021/09/23 11:18:35;;;;;;;11.23;8.10;;;;;;;;;;5133941;27;20441;-56
2021/09/23 11:21:03;;;;;;;12.97;9.50;;;;;;;;;;5134158;27;20536;-56
2021/09/23 11:23:30;;;;;;;15.07;9.63;;;;;;;;;;5133987;27;20940;-56
2021/09/23 11:25:58;;;;;;;15.43;10.10;;;;;;;;;;5134378;27;20437;-56
2021/09/23 11:28:25;;;;;;;11.07;8.60;;;;;;;;;;5155888;22;20480;31
2021/09/23 11:30:53;;;;;;;17.73;9.50;;;;;;;;;;5091332;28;20599;-60
2021/09/23 11:33:22;;;;;;;11.93;9.70;;;;;;;;;;5093358;28;20443;-59
2021/09/23 11:35:51;;;;;;;11.20;10.00;;;;;;;;;;5093144;28;20478;-58
2021/09/23 11:38:20;;;;;;;14.87;10.13;;;;;;;;;;5093479;28;20435;-59
2021/09/23 11:40:48;;;;;;;12.97;9.50;;;;;;;;;;5093325;28;20459;-59
2021/09/23 11:43:17;;;;;;;12.17;10.57;;;;;;;;;;5093398;28;20507;-59
2021/09/23 11:45:45;;;;;;;13.13;10.20;;;;;;;;;;5093903;28;20447;-59
2021/09/23 11:48:13;;;;;;;13.20;10.20;;;;;;;;;;5093068;28;20495;-58
2021/09/23 11:50:43;;;;;;;13.10;9.70;;;;;;;;;;5093001;28;20487;-58
2021/09/23 11:53:12;;;;;;;12.43;11.13;;;;;;;;;;5092718;28;20504;-58
2021/09/23 11:55:42;;;;;;;11.47;10.27;;;;;;;;;;5092790;28;20482;-58
2021/09/23 11:58:10;;;;;;;9.23;8.33;;;;;;;;;;5093571;28;20483;-58
2021/09/23 12:00:39;;;;;;;11.90;8.90;;;;;;;;;;5092859;28;20451;-59
2021/09/23 12:03:07;;;;;;;11.70;10.40;;;;;;;;;;5092410;28;20919;-59
2021/09/23 12:05:34;;;;;;;12.60;10.83;;;;;;;;;;5092995;28;20853;-58
2021/09/23 12:08:10;;;;;;;11.67;9.43;;;;;;;;;;5092884;28;20849;-58
2021/09/23 12:10:47;;;;;;;12.27;10.00;;;;;;;;;;5092755;28;20844;-58
2021/09/23 12:13:21;;;;;;;10.07;9.07;;;;;;;;;;5093378;28;20503;-59
2021/09/23 12:15:52;;;;;;;14.13;8.83;;;;;;;;;;5093278;28;20471;-59
2021/09/23 12:18:19;;;;;;;13.20;9.23;;;;;;;;;;5093211;28;20567;-58
2021/09/23 12:20:49;;;;;;;10.50;8.30;;;;;;;;;;5092576;28;20970;-59
2021/09/23 12:23:25;;;;;;;9.97;8.63;;;;;;;;;;5092649;28;20503;-59
2021/09/23 12:26:06;;;;;;;9.53;8.60;;;;;;;;;;5092313;28;20435;-59
2021/09/23 12:28:33;;;;;;;10.57;8.47;;;;;;;;;;5093018;28;20998;-59
2021/09/23 12:31:01;;;;;;;10.40;8.63;;;;;;;;;;5096985;28;20462;-58
2021/09/23 12:33:28;;;;;;;9.97;8.90;;;;;;;;;;5096555;28;20476;-59
2021/09/23 12:36:09;;;;;;;9.60;8.60;;;;;;;;;;5096689;28;20446;-59
2021/09/23 12:38:37;;;;;;;8.27;7.10;;;;;;;;;;5096446;28;20489;-60
2021/09/23 12:41:16;;;;;;;8.80;7.90;;;;;;;;;;5096949;28;20442;-59
2021/09/23 12:43:44;;;;;;;8.87;7.97;;;;;;;;;;5096625;28;20479;-58
2021/09/23 12:46:13;;;;;;;13.20;8.87;;;;;;;;;;5096681;28;20447;-58
2021/09/23 12:48:41;;;;;;;11.13;8.53;;;;;;;;;;5096804;28;20454;-59
2021/09/23 12:51:08;;;;;;;13.00;8.13;;;;;;;;;;5096897;28;20485;-58
2021/09/23 12:53:36;;;;;;;8.60;7.70;;;;;;;;;;5096949;28;20515;-60
2021/09/23 12:56:06;;;;;;;9.33;7.80;;;;;;;;;;5096518;28;20439;-59
2021/09/23 12:58:33;;;;;;;10.73;7.60;;;;;;;;;;5096114;28;20470;-59
2021/09/23 13:01:17;;;;;;;10.90;8.27;;;;;;;;;;5096328;28;20507;-59
2021/09/23 13:03:44;;;;;;;10.00;8.30;;;;;;;;;;5096357;28;20415;-60
2021/09/23 13:06:12;;;;;;;10.73;8.00;;;;;;;;;;5095972;28;20599;-60
2021/09/23 13:08:43;;;;;;;9.70;7.93;;;;;;;;;;5096669;28;20442;-60
2021/09/23 13:11:14;;;;;;;9.80;7.40;;;;;;;;;;5095978;28;20482;-58
2021/09/23 13:13:43;;;;;;;12.77;8.57;;;;;;;;;;5096909;28;20434;-58
2021/09/23 13:16:11;;;;;;;10.33;7.97;;;;;;;;;;5096190;28;20450;-60
2021/09/23 13:18:38;;;;;;;9.10;8.20;;;;;;;;;;5097597;28;20435;-59
2021/09/23 13:21:06;;;;;;;9.77;8.10;;;;;;;;;;5098749;28;20443;-58
2021/09/23 13:23:34;;;;;;;12.40;9.57;;;;;;;;;;5097496;28;20448;-59
2021/09/23 13:26:03;;;;;;;13.63;8.00;;;;;;;;;;5097339;28;20443;-59
2021/09/23 13:28:33;;;;;;;15.57;9.10;;;;;;;;;;5097412;28;20999;-59
2021/09/23 13:31:00;;;;;;;11.07;9.37;;;;;;;;;;5100542;28;20867;-59
2021/09/23 13:33:28;;;;;;;14.63;8.90;;;;;;;;;;5098698;28;20457;-60
2021/09/23 13:35:55;;;;;;;12.33;7.70;;;;;;;;;;5097148;28;20519;-59
2021/09/23 13:38:24;;;;;;;13.20;9.67;;;;;;;;;;5097313;28;20475;-60
2021/09/23 13:40:51;;;;;;;10.30;8.43;;;;;;;;;;5095301;28;20534;-57
2021/09/23 13:43:18;;;;;;;10.70;9.30;;;;;;;;;;5096217;28;20469;-59
2021/09/23 13:45:47;;;;;;;12.30;9.13;;;;;;;;;;5097006;28;20962;-59
2021/09/23 13:48:15;;;;;;;12.43;9.07;;;;;;;;;;5097234;28;20446;-60
2021/09/23 13:50:43;;;;;;;14.80;8.97;;;;;;;;;;5096556;28;20501;-59
2021/09/23 13:53:10;;;;;;;11.03;9.07;;;;;;;;;;5096438;28;20446;-60
2021/09/23 13:55:37;;;;;;;9.30;8.40;;;;;;;;;;5096781;28;20443;-59
2021/09/23 13:58:05;;;;;;;11.40;8.93;;;;;;;;;;5096402;28;20457;-60
2021/09/23 14:00:33;;;;;;;10.50;9.07;;;;;;;;;;5096523;28;20454;-61
2021/09/23 14:03:02;;;;;;;9.37;7.47;;;;;;;;;;5096617;28;20470;-59
2021/09/23 14:05:30;;;;;;;10.80;9.67;;;;;;;;;;5096181;28;20519;-60
2021/09/23 14:07:58;;;;;;;9.30;7.80;;;;;;;;;;5096239;28;20453;-57
2021/09/23 14:10:25;;;;;;;9.37;7.83;;;;;;;;;;5095878;28;20568;-59
2021/09/23 14:12:53;;;;;;;12.37;8.23;;;;;;;;;;5095670;28;20446;-59
2021/09/23 14:15:21;;;;;;;11.83;7.97;;;;;;;;;;5095226;28;20477;-59
2021/09/23 14:17:48;;;;;;;9.67;8.67;;;;;;;;;;5095927;28;20492;-59
2021/09/23 14:20:17;;;;;;;10.00;7.90;;;;;;;;;;5095031;28;20515;-57
2021/09/23 14:22:44;;;;;;;8.87;8.00;;;;;;;;;;5095739;28;20467;-59
2021/09/23 14:25:12;;;;;;;10.37;8.27;;;;;;;;;;5095625;28;20447;-62
2021/09/23 14:27:40;;;;;;;8.83;7.57;;;;;;;;;;5095242;28;20540;-59
2021/09/23 14:30:08;;;;;;;10.10;7.63;;;;;;;;;;5094367;28;20537;-60